sensor_id;sensor_type;location;lat;lon;timestamp;temperature;humidity
80540;DHT22;69869;48.036;15.780;2023-06-14T00:00:39;19.50;52.00
80540;DHT22;69869;48.036;15.780;2023-06-14T00:03:06;19.50;52.00
80540;DHT22;69869;48.036;15.780;2023-06-14T00:05:38;19.50;52.00
80540;DHT22;69869;48.036;15.780;2023-06-14T00:08:06;19.50;52.30
80540;DHT22;69869;48.036;15.780;2023-06-14T00:10:35;19.50;52.30
80540;DHT22;69869;48.036;15.780;2023-06-14T00:13:02;19.50;52.10
80540;DHT22;69869;48.036;15.780;2023-06-14T00:15:28;19.50;52.00
80540;DHT22;69869;48.036;15.780;2023-06-14T00:17:54;19.50;52.00
80540;DHT22;69869;48.036;15.780;2023-06-14T00:20:20;19.40;52.00
80540;DHT22;69869;48.036;15.780;2023-06-14T00:22:46;19.40;51.80
80540;DHT22;69869;48.036;15.780;2023-06-14T00:25:13;19.40;51.90
80540;DHT22;69869;48.036;15.780;2023-06-14T00:27:39;19.40;52.00
80540;DHT22;69869;48.036;15.780;2023-06-14T00:30:05;19.40;52.50
80540;DHT22;69869;48.036;15.780;2023-06-14T00:32:31;19.40;51.90
80540;DHT22;69869;48.036;15.780;2023-06-14T00:34:56;19.50;52.60
80540;DHT22;69869;48.036;15.780;2023-06-14T00:37:22;19.40;52.20
80540;DHT22;69869;48.036;15.780;2023-06-14T00:39:47;19.40;52.20
80540;DHT22;69869;48.036;15.780;2023-06-14T00:42:26;19.40;52.00
80540;DHT22;69869;48.036;15.780;2023-06-14T00:44:52;19.40;52.30
80540;DHT22;69869;48.036;15.780;2023-06-14T00:47:18;19.40;52.20
80540;DHT22;69869;48.036;15.780;2023-06-14T00:49:46;19.40;52.30
80540;DHT22;69869;48.036;15.780;2023-06-14T00:52:13;19.50;52.80
80540;DHT22;69869;48.036;15.780;2023-06-14T00:54:40;19.50;53.30
80540;DHT22;69869;48.036;15.780;2023-06-14T00:57:07;19.50;52.50
80540;DHT22;69869;48.036;15.780;2023-06-14T00:59:33;19.50;52.90
80540;DHT22;69869;48.036;15.780;2023-06-14T01:01:59;19.50;52.50
80540;DHT22;69869;48.036;15.780;2023-06-14T01:04:25;19.50;52.80
80540;DHT22;69869;48.036;15.780;2023-06-14T01:07:15;19.50;52.70
80540;DHT22;69869;48.036;15.780;2023-06-14T01:15:38;19.50;52.70
80540;DHT22;69869;48.036;15.780;2023-06-14T01:18:05;19.50;52.80
80540;DHT22;69869;48.036;15.780;2023-06-14T01:20:32;19.40;52.80
80540;DHT22;69869;48.036;15.780;2023-06-14T01:22:58;19.40;53.10
80540;DHT22;69869;48.036;15.780;2023-06-14T01:25:25;19.40;52.70
80540;DHT22;69869;48.036;15.780;2023-06-14T01:27:55;19.40;53.00
80540;DHT22;69869;48.036;15.780;2023-06-14T01:30:23;19.40;52.80
80540;DHT22;69869;48.036;15.780;2023-06-14T01:32:51;19.40;52.90
80540;DHT22;69869;48.036;15.780;2023-06-14T01:35:17;19.50;52.90
80540;DHT22;69869;48.036;15.780;2023-06-14T01:37:43;19.40;52.80
80540;DHT22;69869;48.036;15.780;2023-06-14T01:40:10;19.40;53.00
80540;DHT22;69869;48.036;15.780;2023-06-14T01:42:38;19.40;52.90
80540;DHT22;69869;48.036;15.780;2023-06-14T01:45:05;19.40;53.00
80540;DHT22;69869;48.036;15.780;2023-06-14T01:47:34;19.40;52.90
80540;DHT22;69869;48.036;15.780;2023-06-14T01:50:02;19.40;53.10
80540;DHT22;69869;48.036;15.780;2023-06-14T01:52:27;19.40;53.00
80540;DHT22;69869;48.036;15.780;2023-06-14T01:54:53;19.40;53.30
80540;DHT22;69869;48.036;15.780;2023-06-14T01:57:19;19.40;53.20
80540;DHT22;69869;48.036;15.780;2023-06-14T01:59:45;19.40;53.20
80540;DHT22;69869;48.036;15.780;2023-06-14T02:02:15;19.40;53.30
80540;DHT22;69869;48.036;15.780;2023-06-14T02:04:41;19.40;53.30
80540;DHT22;69869;48.036;15.780;2023-06-14T02:07:07;19.40;53.50
80540;DHT22;69869;48.036;15.780;2023-06-14T02:09:33;19.40;53.40
80540;DHT22;69869;48.036;15.780;2023-06-14T02:12:00;19.40;53.30
80540;DHT22;69869;48.036;15.780;2023-06-14T02:14:26;19.40;53.50
80540;DHT22;69869;48.036;15.780;2023-06-14T02:16:52;19.40;53.90
80540;DHT22;69869;48.036;15.780;2023-06-14T02:19:19;19.40;53.80
80540;DHT22;69869;48.036;15.780;2023-06-14T02:21:46;19.40;53.60
80540;DHT22;69869;48.036;15.780;2023-06-14T02:24:11;19.40;53.60
80540;DHT22;69869;48.036;15.780;2023-06-14T02:26:37;19.40;53.60
80540;DHT22;69869;48.036;15.780;2023-06-14T02:29:07;19.40;53.70
80540;DHT22;69869;48.036;15.780;2023-06-14T02:31:35;19.40;53.60
80540;DHT22;69869;48.036;15.780;2023-06-14T02:34:01;19.40;53.50
80540;DHT22;69869;48.036;15.780;2023-06-14T02:36:27;19.40;53.60
80540;DHT22;69869;48.036;15.780;2023-06-14T02:38:55;19.40;53.60
80540;DHT22;69869;48.036;15.780;2023-06-14T02:41:26;19.40;53.50
80540;DHT22;69869;48.036;15.780;2023-06-14T02:43:52;19.40;53.60
80540;DHT22;69869;48.036;15.780;2023-06-14T02:46:18;19.40;53.60
80540;DHT22;69869;48.036;15.780;2023-06-14T02:48:44;19.40;53.50
80540;DHT22;69869;48.036;15.780;2023-06-14T02:51:09;19.40;53.50
80540;DHT22;69869;48.036;15.780;2023-06-14T02:53:36;19.30;53.30
80540;DHT22;69869;48.036;15.780;2023-06-14T02:56:04;19.30;53.30
80540;DHT22;69869;48.036;15.780;2023-06-14T02:58:30;19.40;53.50
80540;DHT22;69869;48.036;15.780;2023-06-14T03:00:56;19.40;53.40
80540;DHT22;69869;48.036;15.780;2023-06-14T03:03:22;19.40;53.50
80540;DHT22;69869;48.036;15.780;2023-06-14T03:05:50;19.30;53.30
80540;DHT22;69869;48.036;15.780;2023-06-14T03:08:16;19.30;53.20
80540;DHT22;69869;48.036;15.780;2023-06-14T03:10:45;19.30;53.20
80540;DHT22;69869;48.036;15.780;2023-06-14T03:13:12;19.40;53.90
80540;DHT22;69869;48.036;15.780;2023-06-14T03:15:38;19.30;53.50
80540;DHT22;69869;48.036;15.780;2023-06-14T03:18:04;19.40;53.50
80540;DHT22;69869;48.036;15.780;2023-06-14T03:20:30;19.40;53.70
80540;DHT22;69869;48.036;15.780;2023-06-14T03:23:02;19.30;53.60
80540;DHT22;69869;48.036;15.780;2023-06-14T03:25:29;19.30;53.60
80540;DHT22;69869;48.036;15.780;2023-06-14T03:27:58;19.40;53.70
80540;DHT22;69869;48.036;15.780;2023-06-14T03:30:24;19.30;53.60
80540;DHT22;69869;48.036;15.780;2023-06-14T03:32:49;19.40;53.50
80540;DHT22;69869;48.036;15.780;2023-06-14T03:35:18;19.30;53.40
80540;DHT22;69869;48.036;15.780;2023-06-14T03:37:44;19.40;53.50
80540;DHT22;69869;48.036;15.780;2023-06-14T03:40:12;19.30;53.40
80540;DHT22;69869;48.036;15.780;2023-06-14T03:42:39;19.30;53.40
80540;DHT22;69869;48.036;15.780;2023-06-14T03:45:05;19.30;53.80
80540;DHT22;69869;48.036;15.780;2023-06-14T03:47:31;19.30;53.60
80540;DHT22;69869;48.036;15.780;2023-06-14T03:49:57;19.40;53.70
80540;DHT22;69869;48.036;15.780;2023-06-14T03:52:23;19.30;53.90
80540;DHT22;69869;48.036;15.780;2023-06-14T03:54:49;19.30;54.00
80540;DHT22;69869;48.036;15.780;2023-06-14T03:57:15;19.30;53.90
80540;DHT22;69869;48.036;15.780;2023-06-14T03:59:41;19.40;54.10
80540;DHT22;69869;48.036;15.780;2023-06-14T04:02:07;19.30;54.00
80540;DHT22;69869;48.036;15.780;2023-06-14T04:04:34;19.30;54.00
80540;DHT22;69869;48.036;15.780;2023-06-14T04:07:01;19.30;54.10
80540;DHT22;69869;48.036;15.780;2023-06-14T04:09:29;19.30;54.10
80540;DHT22;69869;48.036;15.780;2023-06-14T04:11:55;19.30;54.20
80540;DHT22;69869;48.036;15.780;2023-06-14T04:14:21;19.30;54.40
80540;DHT22;69869;48.036;15.780;2023-06-14T04:16:48;19.30;53.90
80540;DHT22;69869;48.036;15.780;2023-06-14T04:19:14;19.40;54.10
80540;DHT22;69869;48.036;15.780;2023-06-14T04:21:40;19.30;54.20
80540;DHT22;69869;48.036;15.780;2023-06-14T04:24:06;19.30;54.10
80540;DHT22;69869;48.036;15.780;2023-06-14T04:26:32;19.30;54.20
80540;DHT22;69869;48.036;15.780;2023-06-14T04:28:59;19.30;54.00
80540;DHT22;69869;48.036;15.780;2023-06-14T04:31:30;19.30;54.10
80540;DHT22;69869;48.036;15.780;2023-06-14T04:33:59;19.40;54.30
80540;DHT22;69869;48.036;15.780;2023-06-14T04:36:25;19.40;54.40
80540;DHT22;69869;48.036;15.780;2023-06-14T04:38:53;19.30;54.20
80540;DHT22;69869;48.036;15.780;2023-06-14T04:41:21;19.40;54.60
80540;DHT22;69869;48.036;15.780;2023-06-14T04:43:49;19.30;54.40
80540;DHT22;69869;48.036;15.780;2023-06-14T04:46:15;19.30;54.30
80540;DHT22;69869;48.036;15.780;2023-06-14T04:48:41;19.40;54.60
80540;DHT22;69869;48.036;15.780;2023-06-14T04:51:08;19.30;54.50
80540;DHT22;69869;48.036;15.780;2023-06-14T04:53:34;19.40;54.30
80540;DHT22;69869;48.036;15.780;2023-06-14T04:56:00;19.30;54.10
80540;DHT22;69869;48.036;15.780;2023-06-14T04:58:27;19.40;55.00
80540;DHT22;69869;48.036;15.780;2023-06-14T05:00:54;19.40;55.20
80540;DHT22;69869;48.036;15.780;2023-06-14T05:03:22;19.40;55.50
80540;DHT22;69869;48.036;15.780;2023-06-14T05:05:49;19.40;55.50
80540;DHT22;69869;48.036;15.780;2023-06-14T05:08:16;19.40;55.20
80540;DHT22;69869;48.036;15.780;2023-06-14T05:10:42;19.40;55.10
80540;DHT22;69869;48.036;15.780;2023-06-14T05:13:07;19.40;55.00
80540;DHT22;69869;48.036;15.780;2023-06-14T05:15:33;19.40;55.00
80540;DHT22;69869;48.036;15.780;2023-06-14T05:17:59;19.40;55.00
80540;DHT22;69869;48.036;15.780;2023-06-14T05:20:25;19.40;54.90
80540;DHT22;69869;48.036;15.780;2023-06-14T05:22:55;19.40;55.00
80540;DHT22;69869;48.036;15.780;2023-06-14T05:25:22;19.40;54.90
80540;DHT22;69869;48.036;15.780;2023-06-14T05:27:48;19.40;54.80
80540;DHT22;69869;48.036;15.780;2023-06-14T05:30:15;19.40;54.80
80540;DHT22;69869;48.036;15.780;2023-06-14T05:32:41;19.40;54.80
80540;DHT22;69869;48.036;15.780;2023-06-14T05:35:07;19.40;54.90
80540;DHT22;69869;48.036;15.780;2023-06-14T05:37:33;19.40;54.90
80540;DHT22;69869;48.036;15.780;2023-06-14T05:39:58;19.40;55.00
80540;DHT22;69869;48.036;15.780;2023-06-14T05:42:24;19.40;55.10
80540;DHT22;69869;48.036;15.780;2023-06-14T05:44:50;19.40;55.00
80540;DHT22;69869;48.036;15.780;2023-06-14T05:47:16;19.40;55.00
80540;DHT22;69869;48.036;15.780;2023-06-14T05:49:41;19.40;55.10
80540;DHT22;69869;48.036;15.780;2023-06-14T05:52:07;19.40;55.10
80540;DHT22;69869;48.036;15.780;2023-06-14T05:54:33;19.40;55.20
80540;DHT22;69869;48.036;15.780;2023-06-14T05:56:59;19.40;55.30
80540;DHT22;69869;48.036;15.780;2023-06-14T05:59:27;19.40;55.40
80540;DHT22;69869;48.036;15.780;2023-06-14T06:01:53;19.40;55.30
80540;DHT22;69869;48.036;15.780;2023-06-14T06:04:19;19.40;55.50
80540;DHT22;69869;48.036;15.780;2023-06-14T06:06:45;19.40;55.50
80540;DHT22;69869;48.036;15.780;2023-06-14T06:09:12;19.40;55.40
80540;DHT22;69869;48.036;15.780;2023-06-14T06:11:39;19.40;55.50
80540;DHT22;69869;48.036;15.780;2023-06-14T06:14:05;19.40;55.50
80540;DHT22;69869;48.036;15.780;2023-06-14T06:16:31;19.40;55.60
80540;DHT22;69869;48.036;15.780;2023-06-14T06:18:56;19.40;55.60
80540;DHT22;69869;48.036;15.780;2023-06-14T06:21:22;19.40;55.80
80540;DHT22;69869;48.036;15.780;2023-06-14T06:23:47;19.40;55.70
80540;DHT22;69869;48.036;15.780;2023-06-14T06:26:13;19.40;55.60
80540;DHT22;69869;48.036;15.780;2023-06-14T06:28:39;19.40;55.60
80540;DHT22;69869;48.036;15.780;2023-06-14T06:31:04;19.40;55.80
80540;DHT22;69869;48.036;15.780;2023-06-14T06:33:30;19.40;55.80
80540;DHT22;69869;48.036;15.780;2023-06-14T06:35:56;19.40;55.80
80540;DHT22;69869;48.036;15.780;2023-06-14T06:38:22;19.50;56.50
80540;DHT22;69869;48.036;15.780;2023-06-14T06:40:47;19.40;55.80
80540;DHT22;69869;48.036;15.780;2023-06-14T06:43:13;19.40;55.70
80540;DHT22;69869;48.036;15.780;2023-06-14T06:45:39;19.40;55.80
80540;DHT22;69869;48.036;15.780;2023-06-14T06:48:05;19.40;55.80
80540;DHT22;69869;48.036;15.780;2023-06-14T06:50:31;19.40;55.70
80540;DHT22;69869;48.036;15.780;2023-06-14T06:52:57;19.50;55.80
80540;DHT22;69869;48.036;15.780;2023-06-14T06:55:22;19.40;55.70
80540;DHT22;69869;48.036;15.780;2023-06-14T06:57:48;19.40;55.60
80540;DHT22;69869;48.036;15.780;2023-06-14T07:00:15;19.40;55.80
80540;DHT22;69869;48.036;15.780;2023-06-14T07:02:41;19.50;56.10
80540;DHT22;69869;48.036;15.780;2023-06-14T07:05:07;19.50;55.90
80540;DHT22;69869;48.036;15.780;2023-06-14T07:07:34;19.40;56.10
80540;DHT22;69869;48.036;15.780;2023-06-14T07:10:00;19.40;56.10
80540;DHT22;69869;48.036;15.780;2023-06-14T07:12:26;19.40;56.00
80540;DHT22;69869;48.036;15.780;2023-06-14T07:14:51;19.40;56.10
80540;DHT22;69869;48.036;15.780;2023-06-14T07:17:17;19.40;56.10
80540;DHT22;69869;48.036;15.780;2023-06-14T07:19:42;19.40;56.10
80540;DHT22;69869;48.036;15.780;2023-06-14T07:22:08;19.50;56.10
80540;DHT22;69869;48.036;15.780;2023-06-14T07:24:34;19.40;56.30
80540;DHT22;69869;48.036;15.780;2023-06-14T07:27:01;19.40;56.30
80540;DHT22;69869;48.036;15.780;2023-06-14T07:29:28;19.40;56.30
80540;DHT22;69869;48.036;15.780;2023-06-14T07:31:54;19.40;56.90
80540;DHT22;69869;48.036;15.780;2023-06-14T07:34:19;19.40;56.60
80540;DHT22;69869;48.036;15.780;2023-06-14T07:36:46;19.50;56.80
80540;DHT22;69869;48.036;15.780;2023-06-14T07:39:11;19.50;57.00
80540;DHT22;69869;48.036;15.780;2023-06-14T07:41:37;19.40;57.50
80540;DHT22;69869;48.036;15.780;2023-06-14T07:44:03;19.50;57.60
80540;DHT22;69869;48.036;15.780;2023-06-14T07:46:28;19.50;57.80
80540;DHT22;69869;48.036;15.780;2023-06-14T07:48:55;19.50;57.90
80540;DHT22;69869;48.036;15.780;2023-06-14T07:51:21;19.50;58.30
80540;DHT22;69869;48.036;15.780;2023-06-14T07:53:48;19.50;59.30
80540;DHT22;69869;48.036;15.780;2023-06-14T07:56:14;19.50;59.60
80540;DHT22;69869;48.036;15.780;2023-06-14T07:58:39;19.50;59.60
80540;DHT22;69869;48.036;15.780;2023-06-14T08:01:05;19.50;59.80
80540;DHT22;69869;48.036;15.780;2023-06-14T08:03:33;19.50;59.60
80540;DHT22;69869;48.036;15.780;2023-06-14T08:05:59;19.50;59.60
80540;DHT22;69869;48.036;15.780;2023-06-14T08:08:26;19.60;60.00
80540;DHT22;69869;48.036;15.780;2023-06-14T08:10:52;19.60;60.00
80540;DHT22;69869;48.036;15.780;2023-06-14T08:13:17;19.50;58.60
80540;DHT22;69869;48.036;15.780;2023-06-14T08:15:43;19.50;58.50
80540;DHT22;69869;48.036;15.780;2023-06-14T08:18:09;19.50;59.00
80540;DHT22;69869;48.036;15.780;2023-06-14T08:20:35;19.50;59.20
80540;DHT22;69869;48.036;15.780;2023-06-14T08:23:03;19.60;59.10
80540;DHT22;69869;48.036;15.780;2023-06-14T08:25:29;19.60;58.50
80540;DHT22;69869;48.036;15.780;2023-06-14T08:27:55;19.60;58.30
80540;DHT22;69869;48.036;15.780;2023-06-14T08:30:21;19.60;58.20
80540;DHT22;69869;48.036;15.780;2023-06-14T08:32:47;19.60;58.20
80540;DHT22;69869;48.036;15.780;2023-06-14T08:35:13;19.60;58.20
80540;DHT22;69869;48.036;15.780;2023-06-14T08:37:42;19.60;58.10
80540;DHT22;69869;48.036;15.780;2023-06-14T08:40:28;19.60;57.80
80540;DHT22;69869;48.036;15.780;2023-06-14T08:42:55;19.60;58.00
80540;DHT22;69869;48.036;15.780;2023-06-14T08:45:22;19.50;58.10
80540;DHT22;69869;48.036;15.780;2023-06-14T08:47:49;19.60;58.10
80540;DHT22;69869;48.036;15.780;2023-06-14T08:50:26;19.60;57.80
80540;DHT22;69869;48.036;15.780;2023-06-14T08:52:56;19.60;57.10
80540;DHT22;69869;48.036;15.780;2023-06-14T08:55:23;19.60;55.20
80540;DHT22;69869;48.036;15.780;2023-06-14T08:57:54;19.60;54.70
80540;DHT22;69869;48.036;15.780;2023-06-14T09:00:20;19.60;54.50
80540;DHT22;69869;48.036;15.780;2023-06-14T09:02:47;19.60;54.50
80540;DHT22;69869;48.036;15.780;2023-06-14T09:05:13;19.50;55.00
80540;DHT22;69869;48.036;15.780;2023-06-14T09:07:40;19.50;54.50
80540;DHT22;69869;48.036;15.780;2023-06-14T09:10:08;19.50;53.70
80540;DHT22;69869;48.036;15.780;2023-06-14T09:12:35;19.50;53.20
80540;DHT22;69869;48.036;15.780;2023-06-14T09:15:01;19.50;55.20
80540;DHT22;69869;48.036;15.780;2023-06-14T09:17:32;19.50;53.50
80540;DHT22;69869;48.036;15.780;2023-06-14T09:19:58;19.50;53.60
80540;DHT22;69869;48.036;15.780;2023-06-14T09:22:24;19.50;54.80
80540;DHT22;69869;48.036;15.780;2023-06-14T09:24:50;19.50;55.30
80540;DHT22;69869;48.036;15.780;2023-06-14T09:27:16;19.60;56.20
80540;DHT22;69869;48.036;15.780;2023-06-14T09:29:41;19.60;56.50
80540;DHT22;69869;48.036;15.780;2023-06-14T09:32:07;19.60;56.00
80540;DHT22;69869;48.036;15.780;2023-06-14T09:34:34;19.60;56.20
80540;DHT22;69869;48.036;15.780;2023-06-14T09:37:01;19.70;58.10
80540;DHT22;69869;48.036;15.780;2023-06-14T09:39:26;19.70;55.80
80540;DHT22;69869;48.036;15.780;2023-06-14T09:41:52;19.60;55.00
80540;DHT22;69869;48.036;15.780;2023-06-14T09:44:18;19.70;55.70
80540;DHT22;69869;48.036;15.780;2023-06-14T09:46:45;19.60;56.10
80540;DHT22;69869;48.036;15.780;2023-06-14T09:49:11;19.60;55.20
80540;DHT22;69869;48.036;15.780;2023-06-14T09:51:43;19.60;56.00
80540;DHT22;69869;48.036;15.780;2023-06-14T09:54:15;19.60;57.20
80540;DHT22;69869;48.036;15.780;2023-06-14T09:56:44;19.70;57.90
80540;DHT22;69869;48.036;15.780;2023-06-14T09:59:12;19.70;56.30
80540;DHT22;69869;48.036;15.780;2023-06-14T10:01:43;19.70;57.30
80540;DHT22;69869;48.036;15.780;2023-06-14T10:04:09;19.70;57.80
80540;DHT22;69869;48.036;15.780;2023-06-14T10:06:45;19.60;54.40
80540;DHT22;69869;48.036;15.780;2023-06-14T10:09:12;19.60;54.90
80540;DHT22;69869;48.036;15.780;2023-06-14T10:11:38;19.70;55.80
80540;DHT22;69869;48.036;15.780;2023-06-14T10:14:10;19.60;55.20
80540;DHT22;69869;48.036;15.780;2023-06-14T10:17:03;19.60;54.40
80540;DHT22;69869;48.036;15.780;2023-06-14T10:19:37;19.60;53.50
80540;DHT22;69869;48.036;15.780;2023-06-14T10:22:09;19.50;53.10
80540;DHT22;69869;48.036;15.780;2023-06-14T10:24:45;19.50;53.90
80540;DHT22;69869;48.036;15.780;2023-06-14T10:27:13;19.50;54.40
80540;DHT22;69869;48.036;15.780;2023-06-14T10:30:07;19.50;53.60
80540;DHT22;69869;48.036;15.780;2023-06-14T10:32:33;19.50;53.30
80540;DHT22;69869;48.036;15.780;2023-06-14T10:35:01;19.50;53.90
80540;DHT22;69869;48.036;15.780;2023-06-14T10:37:29;19.50;55.00
80540;DHT22;69869;48.036;15.780;2023-06-14T10:39:54;19.60;56.00
80540;DHT22;69869;48.036;15.780;2023-06-14T10:42:20;19.60;54.60
80540;DHT22;69869;48.036;15.780;2023-06-14T10:44:55;19.60;55.00
80540;DHT22;69869;48.036;15.780;2023-06-14T10:47:36;19.60;56.00
80540;DHT22;69869;48.036;15.780;2023-06-14T10:50:10;19.60;55.00
80540;DHT22;69869;48.036;15.780;2023-06-14T10:52:42;19.70;56.40
80540;DHT22;69869;48.036;15.780;2023-06-14T10:55:11;19.70;56.80
80540;DHT22;69869;48.036;15.780;2023-06-14T10:57:42;19.70;57.20
80540;DHT22;69869;48.036;15.780;2023-06-14T11:00:09;19.70;54.60
80540;DHT22;69869;48.036;15.780;2023-06-14T11:05:27;19.70;55.10
80540;DHT22;69869;48.036;15.780;2023-06-14T11:13:04;19.80;56.90
80540;DHT22;69869;48.036;15.780;2023-06-14T11:15:31;19.70;55.10
80540;DHT22;69869;48.036;15.780;2023-06-14T11:18:00;19.70;54.10
80540;DHT22;69869;48.036;15.780;2023-06-14T11:20:27;19.70;54.30
80540;DHT22;69869;48.036;15.780;2023-06-14T11:22:53;19.70;52.40
80540;DHT22;69869;48.036;15.780;2023-06-14T11:25:19;19.70;51.10
80540;DHT22;69869;48.036;15.780;2023-06-14T11:27:45;19.70;52.50
80540;DHT22;69869;48.036;15.780;2023-06-14T11:30:12;19.70;54.90
80540;DHT22;69869;48.036;15.780;2023-06-14T11:32:39;19.70;56.70
80540;DHT22;69869;48.036;15.780;2023-06-14T11:35:05;19.80;56.50
80540;DHT22;69869;48.036;15.780;2023-06-14T11:37:32;19.80;56.60
80540;DHT22;69869;48.036;15.780;2023-06-14T11:40:01;19.80;52.20
80540;DHT22;69869;48.036;15.780;2023-06-14T11:42:29;19.80;52.20
80540;DHT22;69869;48.036;15.780;2023-06-14T11:44:55;19.80;54.40
80540;DHT22;69869;48.036;15.780;2023-06-14T11:47:22;19.80;54.10
80540;DHT22;69869;48.036;15.780;2023-06-14T11:49:47;19.80;54.40
80540;DHT22;69869;48.036;15.780;2023-06-14T11:52:13;19.80;54.50
80540;DHT22;69869;48.036;15.780;2023-06-14T11:54:40;19.80;54.50
80540;DHT22;69869;48.036;15.780;2023-06-14T11:57:07;19.80;55.60
80540;DHT22;69869;48.036;15.780;2023-06-14T11:59:38;19.90;55.60
80540;DHT22;69869;48.036;15.780;2023-06-14T12:02:05;19.90;56.10
80540;DHT22;69869;48.036;15.780;2023-06-14T12:04:31;19.90;56.20
80540;DHT22;69869;48.036;15.780;2023-06-14T12:06:57;19.90;56.40
80540;DHT22;69869;48.036;15.780;2023-06-14T12:09:35;19.90;56.60
80540;DHT22;69869;48.036;15.780;2023-06-14T12:12:00;19.90;55.40
80540;DHT22;69869;48.036;15.780;2023-06-14T12:14:32;19.90;56.10
80540;DHT22;69869;48.036;15.780;2023-06-14T12:17:05;19.80;54.90
80540;DHT22;69869;48.036;15.780;2023-06-14T12:19:41;19.90;55.80
80540;DHT22;69869;48.036;15.780;2023-06-14T12:22:10;19.90;55.50
80540;DHT22;69869;48.036;15.780;2023-06-14T12:24:35;19.90;55.40
80540;DHT22;69869;48.036;15.780;2023-06-14T12:27:01;19.90;55.30
80540;DHT22;69869;48.036;15.780;2023-06-14T12:29:30;19.90;54.50
80540;DHT22;69869;48.036;15.780;2023-06-14T12:31:56;19.90;55.50
80540;DHT22;69869;48.036;15.780;2023-06-14T12:34:26;19.90;55.10
80540;DHT22;69869;48.036;15.780;2023-06-14T12:36:56;19.90;55.40
80540;DHT22;69869;48.036;15.780;2023-06-14T12:39:22;19.90;55.70
80540;DHT22;69869;48.036;15.780;2023-06-14T12:41:48;19.90;55.40
80540;DHT22;69869;48.036;15.780;2023-06-14T12:44:15;19.90;55.40
80540;DHT22;69869;48.036;15.780;2023-06-14T12:46:42;19.90;55.70
80540;DHT22;69869;48.036;15.780;2023-06-14T12:49:09;20.00;54.40
80540;DHT22;69869;48.036;15.780;2023-06-14T12:51:35;20.00;53.70
80540;DHT22;69869;48.036;15.780;2023-06-14T12:54:01;19.90;54.50
80540;DHT22;69869;48.036;15.780;2023-06-14T12:56:26;19.90;54.50
80540;DHT22;69869;48.036;15.780;2023-06-14T12:58:52;19.90;54.60
80540;DHT22;69869;48.036;15.780;2023-06-14T13:01:18;19.90;53.20
80540;DHT22;69869;48.036;15.780;2023-06-14T13:03:47;19.90;54.00
80540;DHT22;69869;48.036;15.780;2023-06-14T13:06:15;19.90;54.40
80540;DHT22;69869;48.036;15.780;2023-06-14T13:08:40;19.90;54.40
80540;DHT22;69869;48.036;15.780;2023-06-14T13:11:06;19.90;54.40
80540;DHT22;69869;48.036;15.780;2023-06-14T13:13:31;19.80;53.90
80540;DHT22;69869;48.036;15.780;2023-06-14T13:15:57;19.90;53.80
80540;DHT22;69869;48.036;15.780;2023-06-14T13:18:23;19.90;53.80
80540;DHT22;69869;48.036;15.780;2023-06-14T13:20:48;19.90;54.50
80540;DHT22;69869;48.036;15.780;2023-06-14T13:23:15;19.90;55.10
80540;DHT22;69869;48.036;15.780;2023-06-14T13:25:41;19.90;55.20
80540;DHT22;69869;48.036;15.780;2023-06-14T13:28:06;19.90;54.90
80540;DHT22;69869;48.036;15.780;2023-06-14T13:30:32;19.90;54.70
80540;DHT22;69869;48.036;15.780;2023-06-14T13:32:59;19.90;54.20
80540;DHT22;69869;48.036;15.780;2023-06-14T13:35:25;19.90;53.70
80540;DHT22;69869;48.036;15.780;2023-06-14T13:37:51;19.90;53.90
80540;DHT22;69869;48.036;15.780;2023-06-14T13:40:17;19.90;53.90
80540;DHT22;69869;48.036;15.780;2023-06-14T13:42:42;19.90;54.10
80540;DHT22;69869;48.036;15.780;2023-06-14T13:45:09;19.90;54.40
80540;DHT22;69869;48.036;15.780;2023-06-14T13:47:35;19.90;54.30
80540;DHT22;69869;48.036;15.780;2023-06-14T13:50:01;19.90;55.00
80540;DHT22;69869;48.036;15.780;2023-06-14T13:52:27;19.90;55.60
80540;DHT22;69869;48.036;15.780;2023-06-14T13:54:53;19.90;55.50
80540;DHT22;69869;48.036;15.780;2023-06-14T13:57:19;19.90;55.50
80540;DHT22;69869;48.036;15.780;2023-06-14T13:59:45;19.90;55.70
80540;DHT22;69869;48.036;15.780;2023-06-14T14:02:11;19.90;56.00
80540;DHT22;69869;48.036;15.780;2023-06-14T14:04:38;19.90;53.90
80540;DHT22;69869;48.036;15.780;2023-06-14T14:07:05;19.90;55.40
80540;DHT22;69869;48.036;15.780;2023-06-14T14:09:31;20.00;54.60
80540;DHT22;69869;48.036;15.780;2023-06-14T14:11:58;20.00;54.90
80540;DHT22;69869;48.036;15.780;2023-06-14T14:14:24;20.00;55.00
80540;DHT22;69869;48.036;15.780;2023-06-14T14:16:50;20.00;53.80
80540;DHT22;69869;48.036;15.780;2023-06-14T14:19:20;20.00;54.50
80540;DHT22;69869;48.036;15.780;2023-06-14T14:21:46;20.00;54.70
80540;DHT22;69869;48.036;15.780;2023-06-14T14:24:12;20.00;55.10
80540;DHT22;69869;48.036;15.780;2023-06-14T14:26:37;20.10;54.40
80540;DHT22;69869;48.036;15.780;2023-06-14T14:29:03;20.10;54.10
80540;DHT22;69869;48.036;15.780;2023-06-14T14:31:29;20.10;54.20
80540;DHT22;69869;48.036;15.780;2023-06-14T14:33:55;20.10;54.90
80540;DHT22;69869;48.036;15.780;2023-06-14T14:36:21;20.10;55.20
80540;DHT22;69869;48.036;15.780;2023-06-14T14:38:47;20.00;55.20
80540;DHT22;69869;48.036;15.780;2023-06-14T14:41:13;20.00;54.90
80540;DHT22;69869;48.036;15.780;2023-06-14T14:43:39;20.00;55.10
80540;DHT22;69869;48.036;15.780;2023-06-14T14:46:04;20.00;55.70
80540;DHT22;69869;48.036;15.780;2023-06-14T14:48:30;20.10;56.00
80540;DHT22;69869;48.036;15.780;2023-06-14T14:50:56;20.00;56.10
80540;DHT22;69869;48.036;15.780;2023-06-14T14:53:21;20.00;56.20
80540;DHT22;69869;48.036;15.780;2023-06-14T14:55:48;20.00;56.20
80540;DHT22;69869;48.036;15.780;2023-06-14T14:58:14;20.00;56.40
80540;DHT22;69869;48.036;15.780;2023-06-14T15:00:46;20.00;56.60
80540;DHT22;69869;48.036;15.780;2023-06-14T15:03:12;20.00;56.90
80540;DHT22;69869;48.036;15.780;2023-06-14T15:05:38;20.10;57.60
80540;DHT22;69869;48.036;15.780;2023-06-14T15:08:04;20.10;56.90
80540;DHT22;69869;48.036;15.780;2023-06-14T15:10:36;20.10;56.80
80540;DHT22;69869;48.036;15.780;2023-06-14T15:13:01;20.00;56.70
80540;DHT22;69869;48.036;15.780;2023-06-14T15:15:27;20.10;57.30
80540;DHT22;69869;48.036;15.780;2023-06-14T15:17:53;20.10;56.90
80540;DHT22;69869;48.036;15.780;2023-06-14T15:20:18;20.10;56.90
80540;DHT22;69869;48.036;15.780;2023-06-14T15:22:44;20.10;56.90
80540;DHT22;69869;48.036;15.780;2023-06-14T15:25:10;20.10;56.60
80540;DHT22;69869;48.036;15.780;2023-06-14T15:27:36;20.10;56.30